RUDY10 ENDU-ENDU
Flight info
| Callsign | RUDY10 |
|---|---|
| Flight time | 0h 59m |
| Altitude | 2500 |
| Route | DCT 69 56 87N 18 89 69E 0015E 0030L DCT UNIVERSITY HOSPITAL OF NORTH NORWAY HF/69 68 39N 18 98 47E 0010E 0005G DCT TER 0025E |
| Aircraft | HH47/M-S/C |
Departure
| Time | 2026-04-26 12:51 |
|---|---|
| Airport | Bardufoss Airport (ENDU) |
Arrival
| Time | 2026-04-26 13:51 |
|---|---|
| Airport | Bardufoss Airport (ENDU) |
| Time | Latitude | Longitude | Altitude | Speed | Heading |
|---|---|---|---|---|---|
| 2026-04-26 12:22 | 69.05910 | 18.52232 | 254 ft | 0 kts | 200° |
| 2026-04-26 12:45 | 69.05909 | 18.52232 | 228 ft | 1 kts | 195° |
| 2026-04-26 12:45 | 69.05892 | 18.52222 | 263 ft | 5 kts | 111° |
| 2026-04-26 12:45 | 69.05862 | 18.52418 | 265 ft | 15 kts | 112° |
| 2026-04-26 12:46 | 69.05828 | 18.52743 | 263 ft | 17 kts | 113° |
| 2026-04-26 12:46 | 69.05798 | 18.53018 | 261 ft | 13 kts | 115° |
| 2026-04-26 12:46 | 69.05772 | 18.53247 | 257 ft | 11 kts | 117° |
| 2026-04-26 12:46 | 69.05744 | 18.53494 | 258 ft | 20 kts | 121° |
| 2026-04-26 12:47 | 69.05689 | 18.53967 | 254 ft | 23 kts | 116° |
| 2026-04-26 12:47 | 69.05648 | 18.54335 | 252 ft | 23 kts | 121° |
| 2026-04-26 12:47 | 69.05587 | 18.54856 | 247 ft | 28 kts | 108° |
| 2026-04-26 12:47 | 69.05537 | 18.55291 | 244 ft | 23 kts | 119° |
| 2026-04-26 12:48 | 69.05491 | 18.55686 | 238 ft | 19 kts | 116° |
| 2026-04-26 12:48 | 69.05451 | 18.56034 | 239 ft | 20 kts | 130° |
| 2026-04-26 12:48 | 69.05407 | 18.56376 | 235 ft | 16 kts | 110° |
| 2026-04-26 12:48 | 69.05385 | 18.56598 | 232 ft | 9 kts | 124° |
| 2026-04-26 12:49 | 69.05370 | 18.56729 | 233 ft | 3 kts | 143° |
| 2026-04-26 12:49 | 69.05354 | 18.56769 | 235 ft | 3 kts | 161° |
| 2026-04-26 12:49 | 69.05343 | 18.56791 | 229 ft | 1 kts | 200° |
| 2026-04-26 12:49 | 69.05340 | 18.56791 | 223 ft | 0 kts | 199° |
| 2026-04-26 12:50 | 69.05340 | 18.56789 | 274 ft | 2 kts | 200° |
| 2026-04-26 12:50 | 69.05327 | 18.56788 | 255 ft | 2 kts | 255° |
| 2026-04-26 12:50 | 69.05285 | 18.56755 | 243 ft | 14 kts | 229° |
| 2026-04-26 12:50 | 69.05233 | 18.56672 | 243 ft | 5 kts | 293° |
| 2026-04-26 12:51 | 69.05313 | 18.56097 | 331 ft | 64 kts | 295° |
| 2026-04-26 12:51 | 69.05499 | 18.54567 | 488 ft | 99 kts | 292° |
| 2026-04-26 12:51 | 69.05739 | 18.52586 | 695 ft | 112 kts | 292° |
| 2026-04-26 12:51 | 69.05991 | 18.50500 | 1176 ft | 115 kts | 292° |
| 2026-04-26 12:52 | 69.06308 | 18.48377 | 1617 ft | 121 kts | 295° |
| 2026-04-26 12:52 | 69.06669 | 18.46195 | 2116 ft | 127 kts | 299° |
| 2026-04-26 12:52 | 69.07016 | 18.43948 | 2396 ft | 126 kts | 298° |
| 2026-04-26 12:52 | 69.07394 | 18.41743 | 2535 ft | 119 kts | 300° |
| 2026-04-26 12:53 | 69.07847 | 18.39953 | 2490 ft | 110 kts | 318° |
| 2026-04-26 12:53 | 69.08585 | 18.39372 | 2491 ft | 118 kts | 1° |
| 2026-04-26 12:53 | 69.09378 | 18.40272 | 2512 ft | 133 kts | 26° |
| 2026-04-26 12:53 | 69.10193 | 18.41663 | 2525 ft | 140 kts | 27° |
| 2026-04-26 12:54 | 69.11030 | 18.43081 | 2532 ft | 136 kts | 20° |
| 2026-04-26 12:54 | 69.11838 | 18.44326 | 2530 ft | 130 kts | 18° |
| 2026-04-26 12:54 | 69.12651 | 18.45362 | 2523 ft | 129 kts | 12° |
| 2026-04-26 12:54 | 69.13488 | 18.46355 | 2522 ft | 132 kts | 10° |
| 2026-04-26 12:55 | 69.14334 | 18.47280 | 2527 ft | 130 kts | 9° |
| 2026-04-26 12:55 | 69.15198 | 18.48001 | 2519 ft | 130 kts | 6° |
| 2026-04-26 12:55 | 69.16058 | 18.48686 | 2524 ft | 130 kts | 5° |
| 2026-04-26 12:55 | 69.16923 | 18.49420 | 2525 ft | 130 kts | 5° |
| 2026-04-26 12:56 | 69.17782 | 18.50220 | 2523 ft | 130 kts | 5° |
| 2026-04-26 12:56 | 69.18652 | 18.50921 | 2518 ft | 132 kts | 358° |
| 2026-04-26 12:56 | 69.19551 | 18.51281 | 2524 ft | 130 kts | 356° |
| 2026-04-26 12:56 | 69.20447 | 18.51222 | 2521 ft | 128 kts | 350° |
| 2026-04-26 12:57 | 69.21328 | 18.51075 | 2523 ft | 126 kts | 348° |
| 2026-04-26 12:57 | 69.22219 | 18.50947 | 2516 ft | 129 kts | 348° |
| 2026-04-26 12:57 | 69.23120 | 18.50882 | 2520 ft | 128 kts | 348° |
| 2026-04-26 12:58 | 69.24887 | 18.51084 | 2518 ft | 127 kts | 351° |
| 2026-04-26 12:58 | 69.25771 | 18.51361 | 2515 ft | 129 kts | 351° |
| 2026-04-26 12:58 | 69.26656 | 18.51714 | 2512 ft | 128 kts | 351° |
| 2026-04-26 12:58 | 69.27521 | 18.52119 | 2523 ft | 127 kts | 350° |
| 2026-04-26 12:59 | 69.28396 | 18.52563 | 2518 ft | 128 kts | 350° |
| 2026-04-26 12:59 | 69.29276 | 18.53028 | 2515 ft | 129 kts | 349° |
| 2026-04-26 12:59 | 69.30157 | 18.53507 | 2514 ft | 128 kts | 348° |
| 2026-04-26 12:59 | 69.31037 | 18.53993 | 2512 ft | 129 kts | 348° |
| 2026-04-26 13:00 | 69.31919 | 18.54476 | 2513 ft | 130 kts | 347° |
| 2026-04-26 13:00 | 69.32810 | 18.54773 | 2511 ft | 127 kts | 355° |
| 2026-04-26 13:00 | 69.33683 | 18.54840 | 2511 ft | 125 kts | 352° |
| 2026-04-26 13:00 | 69.34559 | 18.54874 | 2507 ft | 126 kts | 351° |
| 2026-04-26 13:01 | 69.35436 | 18.54955 | 2506 ft | 127 kts | 351° |
| 2026-04-26 13:01 | 69.36313 | 18.55054 | 2512 ft | 123 kts | 353° |
| 2026-04-26 13:01 | 69.37153 | 18.55047 | 2511 ft | 122 kts | 352° |
| 2026-04-26 13:01 | 69.38003 | 18.55055 | 2511 ft | 122 kts | 351° |
| 2026-04-26 13:02 | 69.38854 | 18.55127 | 2511 ft | 123 kts | 351° |
| 2026-04-26 13:02 | 69.39714 | 18.55279 | 2513 ft | 124 kts | 352° |
| 2026-04-26 13:02 | 69.40535 | 18.55190 | 2403 ft | 111 kts | 339° |
| 2026-04-26 13:02 | 69.41024 | 18.54929 | 2408 ft | 107 kts | 334° |
| 2026-04-26 13:03 | 69.41786 | 18.54559 | 2400 ft | 115 kts | 345° |
| 2026-04-26 13:03 | 69.42571 | 18.53953 | 2405 ft | 118 kts | 335° |
| 2026-04-26 13:03 | 69.43365 | 18.53259 | 2407 ft | 120 kts | 333° |
| 2026-04-26 13:03 | 69.44141 | 18.52338 | 2408 ft | 122 kts | 323° |
| 2026-04-26 13:04 | 69.44883 | 18.51175 | 2410 ft | 122 kts | 320° |
| 2026-04-26 13:04 | 69.45622 | 18.49962 | 2408 ft | 124 kts | 318° |
| 2026-04-26 13:04 | 69.46367 | 18.48763 | 2413 ft | 123 kts | 317° |
| 2026-04-26 13:04 | 69.47129 | 18.47562 | 2412 ft | 126 kts | 317° |
| 2026-04-26 13:05 | 69.47897 | 18.46393 | 2412 ft | 124 kts | 316° |
| 2026-04-26 13:05 | 69.48664 | 18.45267 | 2412 ft | 124 kts | 316° |
| 2026-04-26 13:05 | 69.49434 | 18.44159 | 2412 ft | 124 kts | 315° |
| 2026-04-26 13:05 | 69.50204 | 18.43059 | 2416 ft | 123 kts | 315° |
| 2026-04-26 13:06 | 69.50957 | 18.41991 | 2165 ft | 115 kts | 336° |
| 2026-04-26 13:06 | 69.51578 | 18.41077 | 1748 ft | 88 kts | 333° |
| 2026-04-26 13:06 | 69.52018 | 18.40435 | 1743 ft | 57 kts | 338° |
| 2026-04-26 13:06 | 69.52380 | 18.40195 | 1265 ft | 46 kts | 348° |
| 2026-04-26 13:07 | 69.52605 | 18.40034 | 729 ft | 27 kts | 37° |
| 2026-04-26 13:07 | 69.52707 | 18.39983 | 172 ft | 7 kts | 85° |
| 2026-04-26 13:07 | 69.52708 | 18.40151 | 75 ft | 7 kts | 94° |
| 2026-04-26 13:07 | 69.52688 | 18.40232 | 55 ft | 5 kts | 81° |
| 2026-04-26 13:08 | 69.52667 | 18.40278 | 53 ft | 1 kts | 80° |
| 2026-04-26 13:08 | 69.52667 | 18.40290 | 53 ft | 1 kts | 88° |
| 2026-04-26 13:08 | 69.52661 | 18.40332 | 51 ft | 3 kts | 93° |
| 2026-04-26 13:08 | 69.52663 | 18.40419 | 52 ft | 4 kts | 108° |
| 2026-04-26 13:09 | 69.52662 | 18.40446 | 52 ft | 3 kts | 81° |
| 2026-04-26 13:09 | 69.52664 | 18.40540 | 55 ft | 9 kts | 99° |
| 2026-04-26 13:09 | 69.52644 | 18.40630 | 55 ft | 3 kts | 115° |
| 2026-04-26 13:09 | 69.52665 | 18.40584 | 53 ft | 2 kts | 129° |
| 2026-04-26 13:10 | 69.52659 | 18.40593 | 53 ft | 0 kts | 141° |
| 2026-04-26 13:10 | 69.52635 | 18.40628 | 52 ft | 7 kts | 73° |
| 2026-04-26 13:10 | 69.52615 | 18.40697 | 55 ft | 5 kts | 72° |
| 2026-04-26 13:10 | 69.52602 | 18.40745 | 54 ft | 2 kts | 88° |
| 2026-04-26 13:11 | 69.52617 | 18.40753 | 54 ft | 5 kts | 75° |
| 2026-04-26 13:11 | 69.52638 | 18.41077 | 87 ft | 37 kts | 82° |
| 2026-04-26 13:11 | 69.52667 | 18.42241 | 309 ft | 83 kts | 86° |
| 2026-04-26 13:11 | 69.52739 | 18.44103 | 309 ft | 101 kts | 76° |
| 2026-04-26 13:12 | 69.52964 | 18.45942 | 353 ft | 95 kts | 66° |
| 2026-04-26 13:12 | 69.53214 | 18.47622 | 387 ft | 90 kts | 65° |
| 2026-04-26 13:12 | 69.53452 | 18.49131 | 312 ft | 71 kts | 116° |
| 2026-04-26 13:12 | 69.53407 | 18.50297 | 158 ft | 57 kts | 109° |
| 2026-04-26 13:13 | 69.53359 | 18.51256 | 158 ft | 39 kts | 82° |
| 2026-04-26 13:13 | 69.53447 | 18.51829 | 171 ft | 26 kts | 24° |
| 2026-04-26 13:13 | 69.53571 | 18.52190 | 154 ft | 23 kts | 17° |
| 2026-04-26 13:13 | 69.53641 | 18.52325 | 83 ft | 14 kts | 31° |
| 2026-04-26 13:14 | 69.53583 | 18.52341 | 48 ft | 3 kts | 11° |
| 2026-04-26 13:14 | 69.53619 | 18.52272 | 49 ft | 10 kts | 280° |
| 2026-04-26 13:14 | 69.53643 | 18.52146 | 70 ft | 10 kts | 57° |
| 2026-04-26 13:14 | 69.53819 | 18.52950 | 360 ft | 83 kts | 63° |
| 2026-04-26 13:15 | 69.54180 | 18.54621 | 980 ft | 108 kts | 56° |
| 2026-04-26 13:15 | 69.54514 | 18.56517 | 1049 ft | 103 kts | 61° |
| 2026-04-26 13:15 | 69.54746 | 18.58453 | 957 ft | 107 kts | 69° |
| 2026-04-26 13:15 | 69.54958 | 18.60476 | 1033 ft | 107 kts | 70° |
| 2026-04-26 13:16 | 69.55168 | 18.62575 | 1161 ft | 108 kts | 72° |
| 2026-04-26 13:16 | 69.55335 | 18.64504 | 1335 ft | 96 kts | 72° |
| 2026-04-26 13:16 | 69.55470 | 18.66323 | 1410 ft | 89 kts | 74° |
| 2026-04-26 13:16 | 69.55559 | 18.68065 | 1499 ft | 91 kts | 79° |
| 2026-04-26 13:17 | 69.55692 | 18.71785 | 1769 ft | 103 kts | 77° |
| 2026-04-26 13:17 | 69.55850 | 18.73888 | 1767 ft | 115 kts | 69° |
| 2026-04-26 13:18 | 69.56665 | 18.78470 | 1747 ft | 135 kts | 49° |
| 2026-04-26 13:18 | 69.57169 | 18.80756 | 1742 ft | 135 kts | 48° |
| 2026-04-26 13:18 | 69.58082 | 18.85306 | 1739 ft | 130 kts | 45° |
| 2026-04-26 13:19 | 69.58627 | 18.87382 | 1743 ft | 130 kts | 40° |
| 2026-04-26 13:19 | 69.59173 | 18.89448 | 1742 ft | 130 kts | 40° |
| 2026-04-26 13:19 | 69.59767 | 18.91408 | 1736 ft | 131 kts | 30° |
| 2026-04-26 13:19 | 69.60460 | 18.93108 | 1740 ft | 131 kts | 19° |
| 2026-04-26 13:20 | 69.61235 | 18.94466 | 1744 ft | 128 kts | 20° |
| 2026-04-26 13:20 | 69.62085 | 18.95248 | 1742 ft | 128 kts | 5° |
| 2026-04-26 13:20 | 69.62954 | 18.95778 | 1743 ft | 130 kts | 2° |
| 2026-04-26 13:20 | 69.63839 | 18.96288 | 1744 ft | 129 kts | 0° |
| 2026-04-26 13:21 | 69.64703 | 18.96862 | 1743 ft | 126 kts | 1° |
| 2026-04-26 13:21 | 69.65273 | 18.97295 | 1741 ft | 125 kts | 1° |
| 2026-04-26 13:21 | 69.66344 | 18.98095 | 1729 ft | 112 kts | 10° |
| 2026-04-26 13:21 | 69.67039 | 18.98574 | 1674 ft | 88 kts | 7° |
| 2026-04-26 13:22 | 69.67470 | 18.99195 | 1609 ft | 47 kts | 321° |
| 2026-04-26 13:22 | 69.67652 | 18.99650 | 1226 ft | 24 kts | 324° |
| 2026-04-26 13:22 | 69.67789 | 18.99756 | 1004 ft | 22 kts | 306° |
| 2026-04-26 13:22 | 69.67927 | 18.99646 | 971 ft | 20 kts | 309° |
| 2026-04-26 13:23 | 69.68053 | 18.99327 | 893 ft | 30 kts | 315° |
| 2026-04-26 13:23 | 69.68168 | 18.98874 | 851 ft | 21 kts | 318° |
| 2026-04-26 13:23 | 69.68287 | 18.98636 | 632 ft | 19 kts | 311° |
| 2026-04-26 13:23 | 69.68295 | 18.98710 | 280 ft | 11 kts | 319° |
| 2026-04-26 13:24 | 69.68306 | 18.98672 | 231 ft | 4 kts | 328° |
| 2026-04-26 13:24 | 69.68359 | 18.98535 | 220 ft | 8 kts | 318° |
| 2026-04-26 13:24 | 69.68376 | 18.98495 | 161 ft | 0 kts | 316° |
| 2026-04-26 13:24 | 69.68377 | 18.98486 | 167 ft | 0 kts | 321° |
| 2026-04-26 13:25 | 69.68383 | 18.98468 | 167 ft | 0 kts | 311° |
| 2026-04-26 13:31 | 69.68384 | 18.98468 | 168 ft | 1 kts | 313° |
| 2026-04-26 13:32 | 69.68393 | 18.98454 | 313 ft | 4 kts | 223° |
| 2026-04-26 13:32 | 69.68221 | 18.98317 | 554 ft | 68 kts | 198° |
| 2026-04-26 13:32 | 69.67532 | 18.97910 | 1156 ft | 126 kts | 193° |
| 2026-04-26 13:32 | 69.66590 | 18.97286 | 1525 ft | 146 kts | 198° |
| 2026-04-26 13:33 | 69.65578 | 18.96644 | 1516 ft | 151 kts | 198° |
| 2026-04-26 13:33 | 69.64577 | 18.95967 | 1521 ft | 143 kts | 195° |
| 2026-04-26 13:33 | 69.63622 | 18.95286 | 1515 ft | 140 kts | 194° |
| 2026-04-26 13:33 | 69.62696 | 18.94447 | 1518 ft | 139 kts | 198° |
| 2026-04-26 13:34 | 69.61789 | 18.93467 | 1519 ft | 139 kts | 198° |
| 2026-04-26 13:34 | 69.60849 | 18.92674 | 1518 ft | 142 kts | 189° |
| 2026-04-26 13:34 | 69.59879 | 18.92165 | 1520 ft | 143 kts | 177° |
| 2026-04-26 13:34 | 69.59217 | 18.92203 | 1517 ft | 144 kts | 176° |
| 2026-04-26 13:35 | 69.57922 | 18.93169 | 1522 ft | 144 kts | 158° |
| 2026-04-26 13:35 | 69.56961 | 18.93955 | 1521 ft | 144 kts | 161° |
| 2026-04-26 13:35 | 69.55986 | 18.94575 | 1521 ft | 143 kts | 163° |
| 2026-04-26 13:35 | 69.54996 | 18.95020 | 1515 ft | 144 kts | 165° |
| 2026-04-26 13:36 | 69.53993 | 18.95344 | 1515 ft | 146 kts | 165° |
| 2026-04-26 13:36 | 69.52979 | 18.95584 | 1517 ft | 146 kts | 165° |
| 2026-04-26 13:36 | 69.51967 | 18.95758 | 1516 ft | 145 kts | 165° |
| 2026-04-26 13:36 | 69.50981 | 18.95879 | 1521 ft | 143 kts | 165° |
| 2026-04-26 13:37 | 69.49990 | 18.95966 | 1520 ft | 142 kts | 165° |
| 2026-04-26 13:37 | 69.48997 | 18.96043 | 1519 ft | 143 kts | 163° |
| 2026-04-26 13:37 | 69.48004 | 18.96121 | 1514 ft | 144 kts | 162° |
| 2026-04-26 13:37 | 69.46998 | 18.96200 | 1517 ft | 146 kts | 162° |
| 2026-04-26 13:38 | 69.45982 | 18.96315 | 1519 ft | 146 kts | 159° |
| 2026-04-26 13:38 | 69.44965 | 18.96565 | 1517 ft | 147 kts | 155° |
| 2026-04-26 13:38 | 69.43949 | 18.96943 | 1517 ft | 148 kts | 152° |
| 2026-04-26 13:38 | 69.42942 | 18.97463 | 1519 ft | 145 kts | 148° |
| 2026-04-26 13:39 | 69.41960 | 18.98017 | 1519 ft | 143 kts | 146° |
| 2026-04-26 13:39 | 69.40989 | 18.98633 | 1716 ft | 148 kts | 171° |
| 2026-04-26 13:39 | 69.40000 | 18.98235 | 2762 ft | 154 kts | 206° |
| 2026-04-26 13:39 | 69.39106 | 18.96541 | 3453 ft | 151 kts | 220° |
| 2026-04-26 13:40 | 69.38190 | 18.94840 | 3528 ft | 161 kts | 219° |
| 2026-04-26 13:40 | 69.37221 | 18.93152 | 3538 ft | 159 kts | 212° |
| 2026-04-26 13:40 | 69.36398 | 18.91421 | 3520 ft | 143 kts | 221° |
| 2026-04-26 13:40 | 69.35658 | 18.89601 | 3514 ft | 139 kts | 223° |
| 2026-04-26 13:41 | 69.34940 | 18.87739 | 3515 ft | 140 kts | 221° |
| 2026-04-26 13:41 | 69.34188 | 18.85981 | 3516 ft | 141 kts | 217° |
| 2026-04-26 13:41 | 69.33431 | 18.84219 | 3516 ft | 141 kts | 216° |
| 2026-04-26 13:41 | 69.32690 | 18.82414 | 3522 ft | 140 kts | 216° |
| 2026-04-26 13:42 | 69.31962 | 18.80561 | 3517 ft | 141 kts | 216° |
| 2026-04-26 13:42 | 69.31239 | 18.78649 | 3519 ft | 143 kts | 215° |
| 2026-04-26 13:42 | 69.30525 | 18.76697 | 3518 ft | 143 kts | 215° |
| 2026-04-26 13:42 | 69.29832 | 18.74748 | 3518 ft | 141 kts | 214° |
| 2026-04-26 13:43 | 69.29144 | 18.72770 | 3519 ft | 141 kts | 213° |
| 2026-04-26 13:43 | 69.28459 | 18.70772 | 3514 ft | 142 kts | 213° |
| 2026-04-26 13:43 | 69.27773 | 18.68765 | 3521 ft | 141 kts | 212° |
| 2026-04-26 13:43 | 69.27074 | 18.66821 | 3521 ft | 141 kts | 205° |
| 2026-04-26 13:44 | 69.26255 | 18.65244 | 3516 ft | 144 kts | 194° |
| 2026-04-26 13:44 | 69.25383 | 18.63876 | 3518 ft | 143 kts | 190° |
| 2026-04-26 13:44 | 69.24492 | 18.62587 | 3518 ft | 145 kts | 188° |
| 2026-04-26 13:44 | 69.23574 | 18.61407 | 3520 ft | 145 kts | 203° |
| 2026-04-26 13:45 | 69.22578 | 18.60737 | 3520 ft | 148 kts | 189° |
| 2026-04-26 13:45 | 69.21576 | 18.60270 | 3523 ft | 144 kts | 186° |
| 2026-04-26 13:45 | 69.20584 | 18.59812 | 3519 ft | 145 kts | 186° |
| 2026-04-26 13:45 | 69.19595 | 18.59299 | 3515 ft | 145 kts | 185° |
| 2026-04-26 13:46 | 69.18597 | 18.58753 | 3518 ft | 147 kts | 180° |
| 2026-04-26 13:46 | 69.17558 | 18.58727 | 3521 ft | 151 kts | 167° |
| 2026-04-26 13:46 | 69.16511 | 18.58959 | 3521 ft | 151 kts | 162° |
| 2026-04-26 13:46 | 69.15464 | 18.59243 | 3520 ft | 151 kts | 161° |
| 2026-04-26 13:47 | 69.14401 | 18.59537 | 3518 ft | 152 kts | 160° |
| 2026-04-26 13:47 | 69.13363 | 18.59827 | 3517 ft | 152 kts | 159° |
| 2026-04-26 13:47 | 69.12672 | 18.60015 | 3516 ft | 151 kts | 159° |
| 2026-04-26 13:47 | 69.11628 | 18.60294 | 3521 ft | 150 kts | 172° |
| 2026-04-26 13:48 | 69.10287 | 18.60819 | 3253 ft | 144 kts | 174° |
| 2026-04-26 13:48 | 69.09353 | 18.61739 | 3325 ft | 142 kts | 160° |
| 2026-04-26 13:48 | 69.08477 | 18.63018 | 3298 ft | 141 kts | 152° |
| 2026-04-26 13:48 | 69.07647 | 18.64407 | 3159 ft | 141 kts | 155° |
| 2026-04-26 13:49 | 69.07021 | 18.64882 | 2981 ft | 142 kts | 186° |
| 2026-04-26 13:49 | 69.06061 | 18.64753 | 2698 ft | 132 kts | 194° |
| 2026-04-26 13:49 | 69.05238 | 18.63974 | 2149 ft | 123 kts | 220° |
| 2026-04-26 13:49 | 69.04739 | 18.62098 | 1349 ft | 122 kts | 261° |
| 2026-04-26 13:50 | 69.04835 | 18.59797 | 829 ft | 123 kts | 295° |
| 2026-04-26 13:50 | 69.05117 | 18.57643 | 612 ft | 107 kts | 292° |
| 2026-04-26 13:50 | 69.05334 | 18.55856 | 521 ft | 85 kts | 294° |
| 2026-04-26 13:50 | 69.05498 | 18.54481 | 461 ft | 62 kts | 296° |
| 2026-04-26 13:51 | 69.05601 | 18.53635 | 353 ft | 35 kts | 301° |
| 2026-04-26 13:51 | 69.05656 | 18.53192 | 273 ft | 14 kts | 295° |
| 2026-04-26 13:51 | 69.05669 | 18.53078 | 263 ft | 2 kts | 308° |
| 2026-04-26 13:51 | 69.05705 | 18.53021 | 264 ft | 9 kts | 21° |
| 2026-04-26 13:52 | 69.05782 | 18.53088 | 259 ft | 7 kts | 295° |
| 2026-04-26 13:52 | 69.05806 | 18.52912 | 260 ft | 12 kts | 304° |
| 2026-04-26 13:52 | 69.05867 | 18.52840 | 263 ft | 12 kts | 296° |
| 2026-04-26 13:52 | 69.05918 | 18.52466 | 269 ft | 15 kts | 200° |
| 2026-04-26 13:53 | 69.05917 | 18.52361 | 254 ft | 1 kts | 196° |
| 2026-04-26 13:53 | 69.05917 | 18.52360 | 253 ft | 0 kts | 197° |
| 2026-04-26 14:07 | 69.05916 | 18.52359 | 227 ft | 0 kts | 199° |
| 2026-04-26 14:07 | 69.05916 | 18.52364 | 245 ft | 1 kts | 196° |
| 2026-04-26 14:08 | 69.05909 | 18.52342 | 275 ft | 2 kts | 206° |
| 2026-04-26 14:08 | 69.05905 | 18.52358 | 275 ft | 4 kts | 192° |
| 2026-04-26 14:08 | 69.05906 | 18.52418 | 275 ft | 1 kts | 191° |
| 2026-04-26 14:08 | 69.05902 | 18.52422 | 277 ft | 1 kts | 205° |
| 2026-04-26 14:09 | 69.05899 | 18.52422 | 277 ft | 1 kts | 204° |
| 2026-04-26 14:09 | 69.05903 | 18.52393 | 273 ft | 5 kts | 197° |
| 2026-04-26 14:09 | 69.05908 | 18.52388 | 253 ft | 0 kts | 191° |
| 2026-04-26 14:10 | 69.05909 | 18.52389 | 266 ft | 1 kts | 195° |
| 2026-04-26 14:10 | 69.05908 | 18.52388 | 277 ft | 2 kts | 200° |
| 2026-04-26 14:10 | 69.05901 | 18.52422 | 276 ft | 1 kts | 195° |
| 2026-04-26 14:11 | 69.05910 | 18.52433 | 261 ft | 1 kts | 198° |
| 2026-04-26 14:11 | 69.05910 | 18.52438 | 253 ft | 0 kts | 199° |
| 2026-04-26 14:13 | 69.05908 | 18.52441 | 275 ft | 1 kts | 199° |
| 2026-04-26 14:13 | 69.05902 | 18.52430 | 276 ft | 1 kts | 201° |
| 2026-04-26 14:14 | 69.05894 | 18.52408 | 297 ft | 1 kts | 217° |
| 2026-04-26 14:14 | 69.05861 | 18.52398 | 322 ft | 9 kts | 118° |
| 2026-04-26 14:14 | 69.05828 | 18.52618 | 330 ft | 22 kts | 124° |
| 2026-04-26 14:14 | 69.05655 | 18.53055 | 452 ft | 39 kts | 148° |
| 2026-04-26 14:15 | 69.05352 | 18.53601 | 616 ft | 73 kts | 150° |
| 2026-04-26 14:15 | 69.04942 | 18.54444 | 811 ft | 61 kts | 125° |
| 2026-04-26 14:15 | 69.04763 | 18.55034 | 932 ft | 25 kts | 116° |
| 2026-04-26 14:15 | 69.04721 | 18.55343 | 626 ft | 11 kts | 117° |
| 2026-04-26 14:16 | 69.04702 | 18.55472 | 299 ft | 3 kts | 123° |
| 2026-04-26 14:16 | 69.04696 | 18.55493 | 214 ft | 0 kts | 124° |
| 2026-04-26 14:16 | 69.04697 | 18.55496 | 230 ft | 3 kts | 141° |
| 2026-04-26 14:16 | 69.04604 | 18.55610 | 327 ft | 28 kts | 166° |